createdAt,value
2023-04-17T00:00:21.052Z,15.07
2023-04-17T00:03:23.058Z,14.56
2023-04-17T00:06:27.380Z,14.99
2023-04-17T00:09:29.973Z,15.37
2023-04-17T00:12:31.764Z,15.42
2023-04-17T00:15:33.618Z,14.98
2023-04-17T00:18:35.428Z,15.20
2023-04-17T00:21:37.279Z,15.41
2023-04-17T00:24:39.117Z,15.08
2023-04-17T00:27:41.827Z,15.18
2023-04-17T00:30:43.677Z,15.21
2023-04-17T00:33:46.447Z,14.42
2023-04-17T00:36:48.457Z,14.63
2023-04-17T00:39:50.402Z,14.80
2023-04-17T00:42:56.131Z,14.84
2023-04-17T00:45:59.362Z,14.50
2023-04-17T00:49:01.384Z,14.53
2023-04-17T00:52:03.269Z,14.79
2023-04-17T00:55:05.330Z,14.18
2023-04-17T00:58:07.205Z,13.92
2023-04-17T01:01:09.366Z,13.96
2023-04-17T01:04:12.018Z,14.84
2023-04-17T01:07:14.160Z,14.30
2023-04-17T01:10:15.973Z,14.80
2023-04-17T01:13:17.922Z,14.67
2023-04-17T01:16:19.878Z,14.60
2023-04-17T01:19:21.750Z,14.84
2023-04-17T01:22:23.605Z,14.91
2023-04-17T01:25:26.063Z,15.26
2023-04-17T01:28:27.905Z,15.11
2023-04-17T01:31:30.193Z,15.23
2023-04-17T01:34:32.167Z,15.18
2023-04-17T01:37:36.151Z,14.48
2023-04-17T01:40:38.060Z,14.44
2023-04-17T01:43:40.803Z,14.41
2023-04-17T01:46:42.722Z,13.91
2023-04-17T01:49:44.675Z,14.52
2023-04-17T01:52:46.637Z,14.69
2023-04-17T01:55:48.462Z,14.78
2023-04-17T01:58:51.750Z,14.61
2023-04-17T02:01:53.774Z,14.05
2023-04-17T02:04:55.721Z,14.20
2023-04-17T02:07:57.538Z,15.01
2023-04-17T02:10:59.431Z,14.82
2023-04-17T02:14:01.475Z,14.36
2023-04-17T02:17:03.466Z,14.42
2023-04-17T02:20:07.338Z,14.54
2023-04-17T02:23:09.220Z,14.57
2023-04-17T02:26:11.146Z,14.34
2023-04-17T02:29:13.179Z,14.30
2023-04-17T02:32:15.814Z,14.22
2023-04-17T02:35:18.108Z,14.50
2023-04-17T02:38:20.016Z,14.65
2023-04-17T02:41:22.055Z,14.35
2023-04-17T02:44:23.935Z,14.27
2023-04-17T02:47:25.804Z,13.86
2023-04-17T02:50:27.659Z,14.59
2023-04-17T02:53:29.506Z,13.98
2023-04-17T02:56:31.332Z,14.55
2023-04-17T02:59:33.255Z,13.74
2023-04-17T03:02:35.237Z,14.40
2023-04-17T03:05:37.237Z,14.46
2023-04-17T03:08:39.131Z,14.65
2023-04-17T03:11:40.987Z,13.74
2023-04-17T03:14:43.238Z,13.97
2023-04-17T03:17:45.101Z,14.41
2023-04-17T03:20:47.088Z,14.66
2023-04-17T03:23:48.984Z,14.25
2023-04-17T03:26:51.166Z,13.95
2023-04-17T03:29:53.973Z,14.22
2023-04-17T03:32:56.363Z,14.03
2023-04-17T03:35:58.243Z,14.58
2023-04-17T03:39:00.176Z,14.21
2023-04-17T03:42:02.024Z,14.62
2023-04-17T03:45:04.756Z,14.09
2023-04-17T03:48:07.399Z,14.41
2023-04-17T03:51:09.313Z,14.60
2023-04-17T03:54:11.335Z,14.12
2023-04-17T03:57:13.241Z,14.23
2023-04-17T04:00:16.393Z,14.95
2023-04-17T04:03:18.377Z,14.41
2023-04-17T04:06:20.869Z,13.76
2023-04-17T04:09:22.782Z,14.25
2023-04-17T04:12:24.682Z,14.23
2023-04-17T04:15:26.682Z,13.86
2023-04-17T04:18:28.505Z,14.01
2023-04-17T04:21:30.420Z,14.40
2023-04-17T04:24:33.982Z,14.39
2023-04-17T04:27:36.042Z,14.60
2023-04-17T04:30:38.795Z,13.61
2023-04-17T04:33:40.691Z,14.38
2023-04-17T04:36:49.928Z,14.68
2023-04-17T04:39:54.136Z,15.28
2023-04-17T04:42:57.130Z,14.87
2023-04-17T04:45:59.211Z,14.93
2023-04-17T04:49:01.093Z,14.69
2023-04-17T04:52:02.936Z,14.74
2023-04-17T04:55:05.071Z,15.28
2023-04-17T04:58:07.053Z,15.22
2023-04-17T05:01:09.183Z,14.82
2023-04-17T05:04:11.296Z,14.88
2023-04-17T05:07:13.388Z,14.50
2023-04-17T05:10:15.691Z,14.59
2023-04-17T05:13:17.674Z,14.58
2023-04-17T05:16:19.585Z,15.23
2023-04-17T05:19:21.765Z,15.00
2023-04-17T05:22:23.814Z,14.99
2023-04-17T05:25:25.768Z,15.20
2023-04-17T05:28:33.803Z,15.59
2023-04-17T05:31:36.887Z,14.83
2023-04-17T05:34:38.967Z,15.00
2023-04-17T05:37:41.318Z,14.59
2023-04-17T05:40:43.236Z,14.20
2023-04-17T05:43:45.321Z,14.86
2023-04-17T05:46:47.186Z,15.44
2023-04-17T05:49:51.309Z,15.11
2023-04-17T05:52:53.551Z,15.23
2023-04-17T05:55:55.432Z,14.84
2023-04-17T05:58:57.283Z,16.10
2023-04-17T06:01:59.909Z,15.12
2023-04-17T06:05:02.360Z,15.79
2023-04-17T06:08:04.486Z,15.12
2023-04-17T06:11:06.471Z,15.66
2023-04-17T06:14:08.453Z,15.97
2023-04-17T06:17:13.317Z,16.04
2023-04-17T06:20:15.363Z,16.13
2023-04-17T06:23:17.320Z,16.01
2023-04-17T06:26:19.475Z,15.17
2023-04-17T06:29:21.420Z,16.14
2023-04-17T06:32:23.360Z,15.67
2023-04-17T06:35:25.256Z,14.99
2023-04-17T06:38:27.193Z,15.58
2023-04-17T06:41:29.169Z,15.55
2023-04-17T06:44:31.161Z,16.04
2023-04-17T06:47:33.172Z,15.82
2023-04-17T06:50:35.378Z,15.47
2023-04-17T06:53:37.311Z,16.08
2023-04-17T06:56:39.202Z,15.36
2023-04-17T06:59:41.138Z,16.76
2023-04-17T07:02:43.163Z,16.40
2023-04-17T07:05:45.261Z,16.11
2023-04-17T07:08:47.125Z,16.61
2023-04-17T07:11:49.076Z,17.22
2023-04-17T07:14:51.339Z,16.98
2023-04-17T07:17:53.531Z,17.29
2023-04-17T07:20:57.025Z,17.82
2023-04-17T07:23:58.887Z,17.75
2023-04-17T07:27:04.012Z,18.17
2023-04-17T07:30:12.505Z,17.51
2023-04-17T07:33:14.424Z,18.22
2023-04-17T07:36:16.347Z,19.53
2023-04-17T07:39:18.743Z,17.92
2023-04-17T07:42:20.574Z,18.17
2023-04-17T07:45:22.845Z,18.38
2023-04-17T07:48:25.017Z,19.04
2023-04-17T07:51:30.293Z,18.90
2023-04-17T07:54:32.334Z,19.56
2023-04-17T07:57:34.285Z,19.88
2023-04-17T08:00:36.579Z,20.17
2023-04-17T08:03:41.511Z,20.96
2023-04-17T08:06:44.434Z,21.07
2023-04-17T08:09:46.820Z,19.97
2023-04-17T08:12:48.887Z,21.34
2023-04-17T08:15:52.287Z,21.80
2023-04-17T08:18:54.138Z,22.27
2023-04-17T08:22:01.325Z,21.98
2023-04-17T08:25:03.757Z,21.35
2023-04-17T08:28:05.785Z,22.31
2023-04-17T08:31:08.877Z,21.36
2023-04-17T08:34:14.942Z,22.76
2023-04-17T08:37:17.583Z,24.46
2023-04-17T08:40:23.286Z,24.00
2023-04-17T08:43:26.182Z,24.21
2023-04-17T08:46:28.314Z,24.39
2023-04-17T08:49:30.412Z,24.61
2023-04-17T08:52:32.321Z,23.44
2023-04-17T08:55:34.371Z,23.45
2023-04-17T08:58:36.350Z,23.17
2023-04-17T09:01:38.881Z,21.53
2023-04-17T09:04:42.204Z,21.91
2023-04-17T09:07:44.568Z,22.73
2023-04-17T09:10:47.357Z,23.44
2023-04-17T09:13:49.304Z,23.85
2023-04-17T09:16:55.017Z,23.75
2023-04-17T09:20:09.350Z,24.44
2023-04-17T09:23:12.233Z,24.57
2023-04-17T09:26:15.004Z,24.70
2023-04-17T09:29:17.253Z,26.71
2023-04-17T09:32:19.264Z,23.23
2023-04-17T09:35:26.045Z,23.75
2023-04-17T09:38:38.207Z,22.95
2023-04-17T09:41:40.129Z,24.70
2023-04-17T09:44:42.403Z,24.03
2023-04-17T09:47:45.672Z,23.42
2023-04-17T09:50:47.600Z,23.80
2023-04-17T09:53:49.467Z,25.50
2023-04-17T09:56:52.549Z,25.74
2023-04-17T09:59:59.847Z,23.11
2023-04-17T10:03:01.984Z,21.24
2023-04-17T10:06:04.063Z,22.38
2023-04-17T10:09:06.147Z,22.19
2023-04-17T10:12:10.893Z,23.53
2023-04-17T10:15:12.802Z,24.46
2023-04-17T10:18:23.152Z,24.58
2023-04-17T10:21:26.105Z,22.45
2023-04-17T10:24:28.229Z,22.30
2023-04-17T10:27:33.245Z,21.55
2023-04-17T10:30:54.936Z,21.52
2023-04-17T10:33:57.637Z,21.49
2023-04-17T10:37:01.339Z,21.19
2023-04-17T10:40:05.732Z,21.40
2023-04-17T10:43:13.656Z,20.92
2023-04-17T10:46:15.770Z,20.92
2023-04-17T10:49:17.770Z,20.69
2023-04-17T10:52:35.185Z,21.68
2023-04-17T10:55:38.254Z,21.41
2023-04-17T10:58:56.111Z,21.03
2023-04-17T11:01:59.429Z,20.57
2023-04-17T11:05:10.618Z,20.82
2023-04-17T11:08:12.480Z,20.79
2023-04-17T11:11:16.822Z,20.78
2023-04-17T11:14:21.368Z,20.78
2023-04-17T11:17:23.410Z,21.11
2023-04-17T11:20:27.076Z,21.26
2023-04-17T11:23:36.518Z,22.00
2023-04-17T11:26:44.817Z,21.33
2023-04-17T11:29:46.978Z,21.69
2023-04-17T11:32:48.995Z,21.81
2023-04-17T11:35:52.490Z,23.97
2023-04-17T11:38:57.001Z,21.03
2023-04-17T11:41:59.147Z,21.87
2023-04-17T11:45:05.235Z,23.00
2023-04-17T11:48:08.664Z,23.15
2023-04-17T11:51:10.572Z,23.40
2023-04-17T11:54:20.493Z,22.29
2023-04-17T11:57:22.406Z,22.57
2023-04-17T12:00:29.109Z,25.38
2023-04-17T12:03:32.776Z,22.82
2023-04-17T12:06:37.887Z,22.30
2023-04-17T12:09:39.856Z,21.76
2023-04-17T12:12:45.165Z,21.49
2023-04-17T12:15:48.033Z,23.86
2023-04-17T12:18:50.132Z,22.92
2023-04-17T12:21:52.588Z,21.86
2023-04-17T12:24:54.530Z,22.25
2023-04-17T12:27:57.297Z,21.63
2023-04-17T12:30:59.201Z,21.41
2023-04-17T12:34:01.427Z,22.50
2023-04-17T12:37:03.318Z,20.78
2023-04-17T12:40:06.141Z,19.95
2023-04-17T12:43:08.612Z,21.30
2023-04-17T12:46:10.587Z,21.41
2023-04-17T12:49:12.658Z,21.73
2023-04-17T12:52:14.825Z,22.32
2023-04-17T12:55:16.928Z,21.80
2023-04-17T12:58:18.821Z,21.92
2023-04-17T13:01:21.341Z,23.07
2023-04-17T13:04:23.498Z,22.32
2023-04-17T13:07:25.622Z,22.73
2023-04-17T13:10:28.787Z,22.58
2023-04-17T13:13:33.485Z,21.17
2023-04-17T13:16:35.462Z,21.97
2023-04-17T13:19:39.639Z,22.26
2023-04-17T13:22:41.484Z,22.21
2023-04-17T13:25:43.548Z,22.37
2023-04-17T13:28:45.691Z,22.24
2023-04-17T13:31:47.733Z,21.61
2023-04-17T13:34:49.701Z,20.13
2023-04-17T13:37:51.740Z,21.34
2023-04-17T13:40:53.723Z,19.75
2023-04-17T13:43:55.849Z,19.75
2023-04-17T13:46:58.101Z,19.28
2023-04-17T13:50:00.265Z,20.03
2023-04-17T13:53:02.558Z,19.66
2023-04-17T13:56:04.555Z,19.24
2023-04-17T13:59:06.494Z,19.24
2023-04-17T14:02:09.571Z,19.26
2023-04-17T14:05:12.346Z,19.04
2023-04-17T14:08:14.433Z,19.80
2023-04-17T14:12:24.317Z,19.41
2023-04-17T14:15:26.340Z,19.41
2023-04-17T14:18:28.656Z,19.66
2023-04-17T14:21:30.494Z,19.46
2023-04-17T14:24:32.489Z,20.42
2023-04-17T14:27:36.345Z,20.06
2023-04-17T14:30:38.597Z,19.74
2023-04-17T14:33:40.554Z,19.75
2023-04-17T14:36:43.642Z,19.70
2023-04-17T14:39:46.103Z,19.14
2023-04-17T14:42:54.052Z,18.79
2023-04-17T14:45:57.170Z,18.96
2023-04-17T14:48:59.132Z,18.79
2023-04-17T14:52:01.103Z,18.49
2023-04-17T14:55:05.458Z,18.69
2023-04-17T14:58:07.436Z,19.03
2023-04-17T15:01:09.403Z,18.66
2023-04-17T15:04:11.644Z,18.58
2023-04-17T15:07:13.825Z,19.32
2023-04-17T15:10:16.605Z,19.57
2023-04-17T15:13:18.457Z,19.93
2023-04-17T15:16:20.423Z,19.23
2023-04-17T15:19:23.020Z,20.17
2023-04-17T15:22:25.656Z,19.52
2023-04-17T15:25:27.583Z,18.84
2023-04-17T15:28:29.539Z,19.65
2023-04-17T15:31:31.563Z,20.08
2023-04-17T15:34:34.475Z,19.70
2023-04-17T15:37:37.010Z,18.39
2023-04-17T15:40:39.115Z,19.31
2023-04-17T15:43:40.937Z,18.69
2023-04-17T15:46:43.057Z,19.51
2023-04-17T15:49:48.050Z,18.41
2023-04-17T15:52:50.017Z,19.33
2023-04-17T15:55:52.647Z,18.33
2023-04-17T15:58:54.657Z,18.60
2023-04-17T16:01:56.788Z,18.70
2023-04-17T16:04:58.762Z,18.83
2023-04-17T16:08:01.536Z,17.76
2023-04-17T16:11:03.613Z,18.33
2023-04-17T16:14:05.514Z,18.06
2023-04-17T16:17:07.500Z,18.99
2023-04-17T16:20:09.768Z,18.73
2023-04-17T16:23:11.662Z,18.79
2023-04-17T16:26:13.767Z,19.17
2023-04-17T16:29:15.704Z,19.09
2023-04-17T16:32:18.341Z,19.07
2023-04-17T16:35:20.212Z,19.23
2023-04-17T16:38:22.214Z,19.41
2023-04-17T16:41:24.074Z,19.07
2023-04-17T16:44:27.016Z,18.11
2023-04-17T16:47:29.455Z,18.27
2023-04-17T16:50:31.404Z,18.32
2023-04-17T16:53:33.297Z,18.87
2023-04-17T16:56:35.552Z,18.44
2023-04-17T16:59:37.407Z,18.58
2023-04-17T17:02:39.463Z,18.65
2023-04-17T17:05:41.350Z,18.57
2023-04-17T17:08:46.652Z,18.28
2023-04-17T17:11:48.619Z,18.35
2023-04-17T17:14:50.586Z,18.21
2023-04-17T17:17:52.533Z,18.08
2023-04-17T17:20:56.065Z,18.20
2023-04-17T17:23:58.279Z,18.31
2023-04-17T17:27:00.707Z,17.62
2023-04-17T17:30:02.979Z,17.29
2023-04-17T17:33:04.925Z,17.35
2023-04-17T17:36:08.888Z,17.52
2023-04-17T17:39:11.224Z,17.97
2023-04-17T17:42:13.194Z,18.02
2023-04-17T17:45:15.016Z,17.77
2023-04-17T17:48:18.235Z,17.01
2023-04-17T17:51:22.122Z,17.26
2023-04-17T17:54:24.002Z,17.71
2023-04-17T17:57:29.223Z,17.67
2023-04-17T18:00:37.449Z,17.91
2023-04-17T18:03:39.461Z,17.26
2023-04-17T18:06:41.530Z,17.30
2023-04-17T18:09:43.399Z,16.81
2023-04-17T18:12:45.472Z,17.39
2023-04-17T18:15:47.452Z,16.78
2023-04-17T18:18:49.384Z,17.49
2023-04-17T18:21:51.280Z,17.74
2023-04-17T18:24:54.274Z,17.28
2023-04-17T18:27:56.240Z,16.67
2023-04-17T18:30:58.161Z,16.72
2023-04-17T18:34:02.545Z,17.23
2023-04-17T18:37:04.461Z,17.47
2023-04-17T18:40:08.040Z,17.12
2023-04-17T18:43:10.165Z,16.70
2023-04-17T18:46:12.035Z,17.31
2023-04-17T18:49:14.070Z,17.04
2023-04-17T18:52:15.945Z,17.68
2023-04-17T18:55:17.897Z,16.82
2023-04-17T18:58:19.788Z,16.87
2023-04-17T19:01:21.658Z,17.41
2023-04-17T19:04:23.619Z,16.84
2023-04-17T19:07:25.488Z,16.61
2023-04-17T19:10:27.417Z,16.50
2023-04-17T19:13:29.316Z,16.69
2023-04-17T19:16:31.187Z,16.50
2023-04-17T19:19:33.045Z,17.15
2023-04-17T19:22:34.899Z,16.85
2023-04-17T19:25:41.635Z,17.09
2023-04-17T19:28:43.539Z,17.00
2023-04-17T19:31:45.471Z,16.61
2023-04-17T19:34:47.738Z,16.51
2023-04-17T19:37:49.624Z,16.95
2023-04-17T19:41:11.899Z,16.90
2023-04-17T19:44:14.370Z,17.10
2023-04-17T19:47:16.203Z,16.73
2023-04-17T19:50:18.027Z,16.38
2023-04-17T19:53:19.891Z,16.46
2023-04-17T19:56:21.778Z,16.31
2023-04-17T19:59:26.895Z,16.70
2023-04-17T20:02:28.943Z,16.70
2023-04-17T20:05:30.763Z,16.46
2023-04-17T20:08:32.627Z,16.23
2023-04-17T20:11:34.576Z,16.02
2023-04-17T20:14:36.422Z,16.31
2023-04-17T20:17:38.418Z,16.39
2023-04-17T20:20:40.435Z,15.80
2023-04-17T20:23:42.306Z,15.35
2023-04-17T20:26:44.373Z,15.85
2023-04-17T20:29:46.261Z,16.41
2023-04-17T20:32:48.324Z,16.15
2023-04-17T20:35:50.351Z,16.19
2023-04-17T20:38:52.741Z,17.16
2023-04-17T20:41:54.599Z,16.31
2023-04-17T20:44:56.495Z,16.67
2023-04-17T20:47:58.340Z,16.77
2023-04-17T20:51:05.562Z,16.20
2023-04-17T20:54:07.566Z,16.53
2023-04-17T20:57:09.366Z,16.11
2023-04-17T21:00:12.171Z,16.84
2023-04-17T21:03:14.114Z,16.17
2023-04-17T21:06:16.036Z,15.82
2023-04-17T21:09:18.346Z,16.08
2023-04-17T21:12:20.218Z,15.66
2023-04-17T21:15:22.037Z,15.87
2023-04-17T21:18:25.087Z,15.63
2023-04-17T21:21:26.941Z,15.78
2023-04-17T21:24:29.057Z,15.72
2023-04-17T21:27:30.908Z,16.16
2023-04-17T21:30:32.912Z,15.58
2023-04-17T21:33:34.742Z,15.83
2023-04-17T21:36:36.669Z,15.11
2023-04-17T21:39:38.582Z,14.74
2023-04-17T21:42:40.483Z,14.86
2023-04-17T21:45:42.373Z,16.10
2023-04-17T21:48:44.236Z,15.62
2023-04-17T21:51:46.064Z,15.22
2023-04-17T21:54:47.913Z,15.17
2023-04-17T21:57:49.889Z,15.23
2023-04-17T22:00:51.773Z,15.79
2023-04-17T22:03:53.768Z,15.37
2023-04-17T22:06:55.614Z,16.00
2023-04-17T22:09:59.103Z,15.37
2023-04-17T22:13:01.012Z,15.03
2023-04-17T22:16:03.159Z,15.59
2023-04-17T22:19:05.212Z,15.43
2023-04-17T22:22:07.010Z,15.54
2023-04-17T22:25:09.080Z,16.36
2023-04-17T22:28:10.955Z,15.40
2023-04-17T22:31:15.912Z,15.48
2023-04-17T22:34:17.780Z,15.63
2023-04-17T22:37:19.671Z,15.48
2023-04-17T22:40:21.534Z,14.78
2023-04-17T22:43:23.397Z,14.76
2023-04-17T22:46:25.207Z,15.23
2023-04-17T22:49:27.100Z,14.80
2023-04-17T22:52:28.965Z,14.77
2023-04-17T22:55:30.855Z,14.41
2023-04-17T22:58:33.601Z,14.48
2023-04-17T23:01:35.564Z,15.26
2023-04-17T23:04:37.483Z,14.50
2023-04-17T23:07:40.090Z,14.83
2023-04-17T23:10:41.996Z,14.98
2023-04-17T23:13:43.853Z,14.51
2023-04-17T23:16:45.670Z,14.94
2023-04-17T23:19:48.055Z,15.18
2023-04-17T23:22:49.899Z,15.10
2023-04-17T23:25:52.261Z,14.85
2023-04-17T23:28:54.074Z,15.14
2023-04-17T23:31:56.016Z,14.79
2023-04-17T23:34:57.904Z,14.69
2023-04-17T23:37:59.729Z,14.90
2023-04-17T23:41:01.637Z,14.48
2023-04-17T23:44:03.934Z,14.61
2023-04-17T23:47:06.267Z,14.95
2023-04-17T23:50:08.400Z,15.27
2023-04-17T23:53:10.239Z,14.53
2023-04-17T23:56:12.266Z,14.06
2023-04-17T23:59:14.180Z,14.28
